createdAt,value
2022-12-14T00:01:23.068Z,100030.28
2022-12-14T00:03:50.390Z,100032.09
2022-12-14T00:06:18.327Z,100033.97
2022-12-14T00:08:46.489Z,100027.22
2022-12-14T00:11:14.477Z,100021.25
2022-12-14T00:13:42.244Z,100017.09
2022-12-14T00:16:14.315Z,100019.81
2022-12-14T00:18:42.131Z,100013.91
2022-12-14T00:21:11.615Z,100010.56
2022-12-14T00:23:39.676Z,100011.53
2022-12-14T00:26:17.652Z,100012.50
2022-12-14T00:28:45.592Z,100015.16
2022-12-14T00:31:12.401Z,100016.09
2022-12-14T00:33:39.556Z,100018.75
2022-12-14T00:36:08.205Z,100015.34
2022-12-14T00:38:35.031Z,100019.66
2022-12-14T00:41:01.811Z,100015.53
2022-12-14T00:43:28.604Z,100004.44
2022-12-14T00:45:55.336Z,100002.78
2022-12-14T00:48:24.084Z,100005.44
2022-12-14T00:50:52.514Z,100011.56
2022-12-14T00:53:19.758Z,100003.94
2022-12-14T00:55:49.427Z,100005.75
2022-12-14T00:58:19.299Z,100012.72
2022-12-14T01:00:48.369Z,100004.25
2022-12-14T01:03:15.688Z,100001.81
2022-12-14T01:05:49.158Z,99995.88
2022-12-14T01:08:16.233Z,99996.84
2022-12-14T01:10:43.079Z,99996.94
2022-12-14T01:13:11.166Z,99988.44
2022-12-14T01:15:37.995Z,99991.16
2022-12-14T01:18:04.894Z,99998.06
2022-12-14T01:20:31.510Z,99999.00
2022-12-14T01:22:58.352Z,99998.22
2022-12-14T01:25:25.146Z,99997.44
2022-12-14T01:27:51.823Z,99999.22
2022-12-14T01:30:19.485Z,99998.41
2022-12-14T01:32:47.234Z,99990.75
2022-12-14T01:35:13.964Z,99984.81
2022-12-14T01:37:40.585Z,99987.47
2022-12-14T01:40:07.709Z,99980.63
2022-12-14T01:42:35.947Z,99984.91
2022-12-14T01:45:02.744Z,99977.19
2022-12-14T01:47:39.123Z,99974.66
2022-12-14T01:50:11.217Z,99973.03
2022-12-14T01:53:07.345Z,99972.25
2022-12-14T01:55:38.546Z,99973.13
2022-12-14T01:58:19.926Z,99967.13
2022-12-14T02:00:46.563Z,99968.97
2022-12-14T02:03:32.656Z,99969.94
2022-12-14T02:06:07.067Z,99969.97
2022-12-14T02:08:34.074Z,99964.06
2022-12-14T02:11:02.939Z,99967.50
2022-12-14T02:13:33.706Z,99965.00
2022-12-14T02:16:00.944Z,99959.06
2022-12-14T02:18:30.443Z,99959.94
2022-12-14T02:21:05.789Z,99965.13
2022-12-14T02:24:02.951Z,99963.44
2022-12-14T02:26:49.403Z,99957.44
2022-12-14T02:29:21.844Z,99957.50
2022-12-14T02:32:06.826Z,99948.97
2022-12-14T02:34:39.947Z,99949.84
2022-12-14T02:37:24.690Z,99936.97
2022-12-14T02:40:19.145Z,99937.03
2022-12-14T02:43:12.226Z,99932.75
2022-12-14T02:45:44.585Z,99938.75
2022-12-14T02:48:28.711Z,99933.59
2022-12-14T02:51:00.119Z,99927.66
2022-12-14T02:53:39.856Z,99920.81
2022-12-14T02:56:15.652Z,99916.53
2022-12-14T02:58:50.461Z,99914.03
2022-12-14T03:01:22.106Z,99908.94
2022-12-14T03:03:48.914Z,99907.25
2022-12-14T03:06:27.231Z,99895.25
2022-12-14T03:09:03.457Z,99887.59
2022-12-14T03:11:37.862Z,99892.81
2022-12-14T03:14:40.853Z,99877.41
2022-12-14T03:17:19.606Z,99880.00
2022-12-14T03:20:07.892Z,99879.19
2022-12-14T03:22:38.705Z,99880.13
2022-12-14T03:25:11.207Z,99870.69
2022-12-14T03:27:43.989Z,99865.50
2022-12-14T03:30:23.792Z,99857.78
2022-12-14T03:33:09.658Z,99871.53
2022-12-14T03:36:19.832Z,99855.06
2022-12-14T03:38:51.190Z,99850.75
2022-12-14T03:42:08.623Z,99855.88
2022-12-14T03:44:49.337Z,99841.25
2022-12-14T03:47:22.176Z,99846.44
2022-12-14T03:50:04.915Z,99837.84
2022-12-14T03:52:45.274Z,99839.59
2022-12-14T03:55:32.911Z,99840.44
2022-12-14T03:58:10.536Z,99826.69
2022-12-14T04:00:45.150Z,99839.56
2022-12-14T04:03:18.357Z,99825.81
2022-12-14T04:06:08.599Z,99819.75
2022-12-14T04:08:44.322Z,99816.31
2022-12-14T04:11:34.160Z,99808.59
2022-12-14T04:14:29.411Z,99804.34
2022-12-14T04:17:16.400Z,99791.50
2022-12-14T04:19:52.256Z,99807.09
2022-12-14T04:22:23.617Z,99796.78
2022-12-14T04:25:17.287Z,99790.81
2022-12-14T04:27:49.563Z,99787.44
2022-12-14T04:30:16.807Z,99786.63
2022-12-14T04:32:51.721Z,99777.19
2022-12-14T04:35:26.872Z,99766.84
2022-12-14T04:38:17.162Z,99765.94
2022-12-14T04:40:49.948Z,99765.94
2022-12-14T04:43:24.510Z,99758.16
2022-12-14T04:46:02.278Z,99754.81
2022-12-14T04:48:40.685Z,99754.81
2022-12-14T04:51:18.531Z,99756.59
2022-12-14T04:53:49.915Z,99746.31
2022-12-14T04:56:27.539Z,99754.13
2022-12-14T04:58:54.815Z,99753.28
2022-12-14T05:01:22.602Z,99745.56
2022-12-14T05:04:08.168Z,99741.28
2022-12-14T05:06:46.681Z,99737.03
2022-12-14T05:09:16.961Z,99743.97
2022-12-14T05:12:00.688Z,99747.41
2022-12-14T05:14:34.703Z,99756.06
2022-12-14T05:17:08.415Z,99752.63
2022-12-14T05:19:35.762Z,99750.09
2022-12-14T05:22:07.312Z,99744.97
2022-12-14T05:24:34.203Z,99745.84
2022-12-14T05:27:00.897Z,99740.72
2022-12-14T05:29:27.615Z,99725.25
2022-12-14T05:31:54.318Z,99724.44
2022-12-14T05:34:21.104Z,99714.97
2022-12-14T05:36:47.938Z,99715.00
2022-12-14T05:39:15.650Z,99715.88
2022-12-14T05:41:42.769Z,99712.44
2022-12-14T05:44:09.505Z,99708.13
2022-12-14T05:46:36.237Z,99690.97
2022-12-14T05:49:02.943Z,99693.56
2022-12-14T05:51:29.654Z,99690.16
2022-12-14T05:53:58.424Z,99691.91
2022-12-14T05:56:25.128Z,99691.09
2022-12-14T05:58:52.092Z,99685.97
2022-12-14T06:01:19.820Z,99682.53
2022-12-14T06:03:46.831Z,99679.09
2022-12-14T06:06:14.549Z,99675.69
2022-12-14T06:08:44.595Z,99656.75
2022-12-14T06:11:19.885Z,99659.34
2022-12-14T06:13:50.038Z,99647.31
2022-12-14T06:16:19.651Z,99649.88
2022-12-14T06:18:52.017Z,99650.78
2022-12-14T06:21:22.162Z,99655.09
2022-12-14T06:23:48.926Z,99658.56
2022-12-14T06:26:16.855Z,99650.81
2022-12-14T06:28:44.343Z,99645.66
2022-12-14T06:31:23.073Z,99643.13
2022-12-14T06:33:50.481Z,99637.94
2022-12-14T06:36:28.789Z,99642.28
2022-12-14T06:38:56.707Z,99645.69
2022-12-14T06:41:24.265Z,99640.53
2022-12-14T06:43:51.310Z,99636.22
2022-12-14T06:46:23.079Z,99648.31
2022-12-14T06:48:51.693Z,99639.72
2022-12-14T06:51:18.507Z,99639.72
2022-12-14T06:53:45.138Z,99636.28
2022-12-14T06:56:14.399Z,99631.97
2022-12-14T06:58:41.425Z,99626.81
2022-12-14T07:01:11.034Z,99627.69
2022-12-14T07:03:37.882Z,99629.47
2022-12-14T07:06:04.986Z,99621.72
2022-12-14T07:08:33.151Z,99619.13
2022-12-14T07:11:05.188Z,99619.13
2022-12-14T07:13:31.905Z,99609.66
2022-12-14T07:15:59.881Z,99614.81
2022-12-14T07:18:27.622Z,99613.97
2022-12-14T07:21:03.419Z,99612.25
2022-12-14T07:23:32.666Z,99615.69
2022-12-14T07:26:05.245Z,99609.66
2022-12-14T07:28:32.855Z,99613.97
2022-12-14T07:31:00.712Z,99612.19
2022-12-14T07:33:29.355Z,99603.63
2022-12-14T07:36:05.483Z,99607.06
2022-12-14T07:38:32.614Z,99603.66
2022-12-14T07:41:23.512Z,99606.25
2022-12-14T07:43:51.887Z,99607.13
2022-12-14T07:46:21.664Z,99598.53
2022-12-14T07:48:50.852Z,99599.41
2022-12-14T07:51:20.736Z,99601.16
2022-12-14T07:53:48.020Z,99600.31
2022-12-14T07:56:23.529Z,99598.59
2022-12-14T07:58:50.161Z,99606.38
2022-12-14T08:01:24.169Z,99615.88
2022-12-14T08:03:56.397Z,99607.28
2022-12-14T08:06:25.393Z,99602.94
2022-12-14T08:08:52.797Z,99607.25
2022-12-14T08:11:22.336Z,99593.47
2022-12-14T08:13:56.914Z,99593.47
2022-12-14T08:16:24.188Z,99591.75
2022-12-14T08:18:52.723Z,99587.44
2022-12-14T08:21:22.172Z,99590.03
2022-12-14T08:23:50.042Z,99594.34
2022-12-14T08:26:17.369Z,99582.28
2022-12-14T08:28:44.141Z,99580.59
2022-12-14T08:31:18.636Z,99581.44
2022-12-14T08:33:46.695Z,99561.66
2022-12-14T08:36:19.988Z,99567.69
2022-12-14T08:38:46.620Z,99573.72
2022-12-14T08:41:15.894Z,99564.25
2022-12-14T08:43:42.607Z,99561.69
2022-12-14T08:46:10.534Z,99563.41
2022-12-14T08:48:37.970Z,99564.31
2022-12-14T08:51:06.504Z,99560.88
2022-12-14T08:53:33.952Z,99566.94
2022-12-14T08:56:11.969Z,99567.00
2022-12-14T08:58:40.476Z,99557.50
2022-12-14T09:01:19.659Z,99560.97
2022-12-14T09:03:48.048Z,99557.56
2022-12-14T09:06:18.229Z,99550.69
2022-12-14T09:08:46.856Z,99556.72
2022-12-14T09:11:19.078Z,99554.16
2022-12-14T09:13:46.780Z,99546.44
2022-12-14T09:16:16.305Z,99552.47
2022-12-14T09:18:43.571Z,99551.63
2022-12-14T09:21:10.884Z,99556.81
2022-12-14T09:23:37.958Z,99555.94
2022-12-14T09:26:13.132Z,99548.19
2022-12-14T09:28:41.407Z,99548.22
2022-12-14T09:31:11.600Z,99558.53
2022-12-14T09:33:38.561Z,99549.91
2022-12-14T09:36:08.348Z,99549.91
2022-12-14T09:38:36.571Z,99540.47
2022-12-14T09:41:07.623Z,99531.84
2022-12-14T09:43:42.280Z,99530.09
2022-12-14T09:46:48.409Z,99531.81
2022-12-14T09:49:26.973Z,99546.50
2022-12-14T09:51:56.609Z,99539.63
2022-12-14T09:54:27.742Z,99537.03
2022-12-14T09:57:01.597Z,99537.03
2022-12-14T09:59:30.439Z,99540.47
2022-12-14T10:04:59.720Z,99535.31
2022-12-14T10:07:50.779Z,99533.59
2022-12-14T10:10:24.979Z,99531.81
2022-12-14T10:13:04.053Z,99524.06
2022-12-14T10:15:38.130Z,99526.66
2022-12-14T10:18:57.540Z,99523.19
2022-12-14T10:21:23.725Z,99526.66
2022-12-14T10:24:04.605Z,99521.47
2022-12-14T10:26:46.385Z,99522.31
2022-12-14T10:29:18.846Z,99523.19
2022-12-14T10:31:58.845Z,99526.66
2022-12-14T10:34:32.357Z,99518.03
2022-12-14T10:37:12.307Z,99515.44
2022-12-14T10:40:09.327Z,99512.03
2022-12-14T10:42:39.315Z,99512.03
2022-12-14T10:45:39.917Z,99505.97
2022-12-14T10:48:25.183Z,99505.13
2022-12-14T10:50:57.575Z,99506.84
2022-12-14T10:53:56.638Z,99510.31
2022-12-14T10:56:30.102Z,99503.41
2022-12-14T10:59:18.377Z,99500.81
2022-12-14T11:01:47.193Z,99498.22
2022-12-14T11:04:37.283Z,99497.41
2022-12-14T11:07:09.769Z,99493.09
2022-12-14T11:09:37.868Z,99499.16
2022-12-14T11:12:38.589Z,99495.69
2022-12-14T11:15:06.696Z,99496.53
2022-12-14T11:17:38.274Z,99501.72
2022-12-14T11:20:27.691Z,99504.28
2022-12-14T11:22:57.886Z,99506.88
2022-12-14T11:25:30.797Z,99497.41
2022-12-14T11:28:05.502Z,99500.88
2022-12-14T11:30:32.325Z,99491.38
2022-12-14T11:32:59.230Z,99489.69
2022-12-14T11:35:25.971Z,99497.44
2022-12-14T11:37:59.184Z,99494.00
2022-12-14T11:40:27.819Z,99491.38
2022-12-14T11:43:03.447Z,99496.53
2022-12-14T11:45:33.971Z,99495.66
2022-12-14T11:48:15.970Z,99495.63
2022-12-14T11:50:44.710Z,99500.81
2022-12-14T11:53:14.638Z,99500.81
2022-12-14T11:55:47.538Z,99499.06
2022-12-14T11:58:20.686Z,99505.94
2022-12-14T12:00:56.312Z,99511.97
2022-12-14T12:03:31.271Z,99505.91
2022-12-14T12:06:08.860Z,99504.19
2022-12-14T12:08:38.260Z,99505.03
2022-12-14T12:11:15.376Z,99492.09
2022-12-14T12:13:48.337Z,99504.16
2022-12-14T12:16:18.041Z,99504.16
2022-12-14T12:19:07.886Z,99507.59
2022-12-14T12:21:41.793Z,99514.50
2022-12-14T12:24:27.116Z,99510.13
2022-12-14T12:26:57.661Z,99497.22
2022-12-14T12:29:53.048Z,99505.84
2022-12-14T12:32:25.007Z,99516.19
2022-12-14T12:35:01.383Z,99506.66
2022-12-14T12:37:44.909Z,99505.75
2022-12-14T12:40:38.864Z,99514.38
2022-12-14T12:43:24.120Z,99509.16
2022-12-14T12:46:02.588Z,99510.91
2022-12-14T12:48:36.287Z,99516.94
2022-12-14T12:51:10.093Z,99524.69
2022-12-14T12:53:44.011Z,99527.25
2022-12-14T12:56:17.063Z,99529.03
2022-12-14T12:58:52.100Z,99519.50
2022-12-14T13:01:25.017Z,99520.38
2022-12-14T13:03:57.268Z,99510.91
2022-12-14T13:06:30.951Z,99501.41
2022-12-14T13:09:00.663Z,99488.47
2022-12-14T13:11:35.941Z,99494.50
2022-12-14T13:14:31.016Z,99493.63
2022-12-14T13:17:03.189Z,99497.88
2022-12-14T13:19:50.649Z,99494.41
2022-12-14T13:22:26.172Z,99500.47
2022-12-14T13:24:58.991Z,99493.56
2022-12-14T13:27:49.706Z,99490.09
2022-12-14T13:30:54.206Z,99494.41
2022-12-14T13:33:52.832Z,99501.28
2022-12-14T13:36:37.561Z,99484.03
2022-12-14T13:39:06.871Z,99490.03
2022-12-14T13:41:45.325Z,99496.91
2022-12-14T13:44:34.772Z,99496.88
2022-12-14T13:47:15.455Z,99505.50
2022-12-14T13:50:11.339Z,99503.72
2022-12-14T13:52:39.178Z,99492.44
2022-12-14T13:55:24.418Z,99486.44
2022-12-14T13:57:51.252Z,99507.00
2022-12-14T14:00:50.150Z,99513.00
2022-12-14T14:03:35.044Z,99517.31
2022-12-14T14:06:14.895Z,99506.06
2022-12-14T14:08:50.758Z,99509.50
2022-12-14T14:11:39.617Z,99505.16
2022-12-14T14:14:33.633Z,99515.50
2022-12-14T14:17:23.742Z,99505.16
2022-12-14T14:19:53.145Z,99487.94
2022-12-14T14:22:26.226Z,99491.34
2022-12-14T14:24:53.067Z,99499.94
2022-12-14T14:27:22.465Z,99515.38
2022-12-14T14:29:51.560Z,99508.47
2022-12-14T14:32:29.610Z,99512.75
2022-12-14T14:34:56.470Z,99512.75
2022-12-14T14:37:30.624Z,99512.75
2022-12-14T14:40:50.976Z,99504.13
2022-12-14T14:43:31.229Z,99511.81
2022-12-14T14:46:04.691Z,99511.81
2022-12-14T14:48:49.852Z,99509.19
2022-12-14T14:51:21.441Z,99502.31
2022-12-14T14:53:50.164Z,99492.84
2022-12-14T14:56:40.041Z,99491.97
2022-12-14T14:59:19.298Z,99494.53
2022-12-14T15:01:48.821Z,99495.38
2022-12-14T15:04:30.678Z,99485.91
2022-12-14T15:07:03.155Z,99491.88
2022-12-14T15:09:33.801Z,99492.78
2022-12-14T15:12:08.018Z,99499.69
2022-12-14T15:14:48.498Z,99506.63
2022-12-14T15:17:22.243Z,99509.19
2022-12-14T15:19:50.297Z,99501.47
2022-12-14T15:22:19.856Z,99504.94
2022-12-14T15:24:50.978Z,99508.38
2022-12-14T15:27:43.836Z,99504.97
2022-12-14T15:30:10.403Z,99508.47
2022-12-14T15:32:39.772Z,99507.59
2022-12-14T15:35:17.160Z,99512.81
2022-12-14T15:37:56.309Z,99516.28
2022-12-14T15:40:30.543Z,99516.28
2022-12-14T15:43:00.274Z,99524.03
2022-12-14T15:45:30.007Z,99524.06
2022-12-14T15:48:15.866Z,99532.50
2022-12-14T15:50:48.651Z,99525.50
2022-12-14T15:53:28.884Z,99529.69
2022-12-14T15:56:04.104Z,99524.56
2022-12-14T15:58:39.240Z,99527.19
2022-12-14T16:01:13.276Z,99522.97
2022-12-14T16:03:45.146Z,99523.88
2022-12-14T16:06:14.366Z,99523.81
2022-12-14T16:08:57.885Z,99524.72
2022-12-14T16:11:42.451Z,99538.53
2022-12-14T16:14:27.715Z,99548.91
2022-12-14T16:16:54.942Z,99548.03
2022-12-14T16:19:28.694Z,99553.94
2022-12-14T16:22:05.622Z,99552.13
2022-12-14T16:24:32.323Z,99536.66
2022-12-14T16:27:00.776Z,99541.81
2022-12-14T16:29:30.340Z,99541.81
2022-12-14T16:32:03.615Z,99530.66
2022-12-14T16:34:30.905Z,99541.91
2022-12-14T16:37:30.928Z,99547.97
2022-12-14T16:39:49.677Z,99548.84
2022-12-14T16:42:24.806Z,99549.75
2022-12-14T16:44:54.225Z,99546.31
2022-12-14T16:47:20.832Z,99540.28
2022-12-14T16:49:50.798Z,99541.16
2022-12-14T16:52:27.064Z,99536.03
2022-12-14T16:55:13.285Z,99546.41
2022-12-14T16:57:48.998Z,99554.13
2022-12-14T17:00:36.231Z,99551.53
2022-12-14T17:03:18.556Z,99546.28
2022-12-14T17:05:52.174Z,99544.56
2022-12-14T17:08:19.159Z,99535.94
2022-12-14T17:10:45.867Z,99540.28
2022-12-14T17:13:12.479Z,99532.53
2022-12-14T17:15:59.082Z,99538.56
2022-12-14T17:18:29.935Z,99534.31
2022-12-14T17:20:57.080Z,99537.75
2022-12-14T17:23:24.220Z,99534.31
2022-12-14T17:25:51.107Z,99535.16
2022-12-14T17:28:24.566Z,99525.69
2022-12-14T17:30:56.249Z,99536.06
2022-12-14T17:33:27.474Z,99531.81
2022-12-14T17:35:55.305Z,99537.84
2022-12-14T17:38:25.665Z,99547.31
2022-12-14T17:40:53.997Z,99542.16
2022-12-14T17:43:25.693Z,99539.63
2022-12-14T17:45:53.009Z,99541.34
2022-12-14T17:48:22.391Z,99548.22
2022-12-14T17:50:50.628Z,99546.53
2022-12-14T17:53:21.672Z,99547.41
2022-12-14T17:55:48.544Z,99551.72
2022-12-14T17:58:15.149Z,99555.94
2022-12-14T18:01:00.151Z,99556.75
2022-12-14T18:03:30.253Z,99556.75
2022-12-14T18:05:58.069Z,99555.91
2022-12-14T18:08:26.637Z,99562.81
2022-12-14T18:11:10.190Z,99562.78
2022-12-14T18:13:40.600Z,99565.31
2022-12-14T18:16:10.309Z,99582.50
2022-12-14T18:18:37.067Z,99572.94
2022-12-14T18:21:04.831Z,99577.22
2022-12-14T18:23:33.401Z,99578.06
2022-12-14T18:26:01.131Z,99578.81
2022-12-14T18:28:27.895Z,99577.00
2022-12-14T18:30:58.527Z,99585.59
2022-12-14T18:33:27.774Z,99584.78
2022-12-14T18:35:57.041Z,99591.69
2022-12-14T18:38:25.046Z,99590.03
2022-12-14T18:40:53.708Z,99591.75
2022-12-14T18:43:25.997Z,99595.91
2022-12-14T18:45:59.366Z,99595.81
2022-12-14T18:48:31.437Z,99596.59
2022-12-14T18:50:58.407Z,99606.00
2022-12-14T18:53:26.487Z,99605.09
2022-12-14T18:55:53.923Z,99612.72
2022-12-14T18:58:27.328Z,99615.31
2022-12-14T19:00:56.925Z,99617.88
2022-12-14T19:03:24.757Z,99624.78
2022-12-14T19:05:52.671Z,99623.91
2022-12-14T19:08:20.234Z,99622.22
2022-12-14T19:10:48.788Z,99636.91
2022-12-14T19:13:25.314Z,99639.53
2022-12-14T19:15:54.369Z,99637.09
2022-12-14T19:18:21.970Z,99644.00
2022-12-14T19:20:52.535Z,99644.84
2022-12-14T19:23:23.342Z,99655.13
2022-12-14T19:25:51.070Z,99649.13
2022-12-14T19:28:33.419Z,99655.25
2022-12-14T19:31:02.412Z,99654.50
2022-12-14T19:33:31.018Z,99662.19
2022-12-14T19:35:59.650Z,99669.78
2022-12-14T19:38:28.441Z,99671.53
2022-12-14T19:41:11.828Z,99674.13
2022-12-14T19:43:39.773Z,99673.31
2022-12-14T19:46:12.243Z,99678.53
2022-12-14T19:48:42.896Z,99678.56
2022-12-14T19:51:12.662Z,99669.13
2022-12-14T19:53:42.861Z,99672.59
2022-12-14T19:56:11.321Z,99672.66
2022-12-14T19:58:38.794Z,99671.81
2022-12-14T20:01:13.985Z,99676.97
2022-12-14T20:03:42.264Z,99670.09
2022-12-14T20:06:09.898Z,99688.19
2022-12-14T20:08:37.694Z,99689.00
2022-12-14T20:11:10.174Z,99696.75
2022-12-14T20:13:38.132Z,99694.97
2022-12-14T20:16:06.110Z,99700.09
2022-12-14T20:18:34.279Z,99682.03
2022-12-14T20:21:09.747Z,99692.41
2022-12-14T20:23:39.004Z,99701.03
2022-12-14T20:26:09.771Z,99706.25
2022-12-14T20:28:37.176Z,99718.25
2022-12-14T20:31:10.894Z,99713.09
2022-12-14T20:33:39.015Z,99728.53
2022-12-14T20:36:07.270Z,99724.97
2022-12-14T20:38:34.836Z,99728.28
2022-12-14T20:41:11.247Z,99726.47
2022-12-14T20:43:41.545Z,99734.03
2022-12-14T20:46:30.179Z,99736.44
2022-12-14T20:49:01.134Z,99740.56
2022-12-14T20:51:33.979Z,99734.41
2022-12-14T20:54:01.038Z,99741.22
2022-12-14T20:56:28.463Z,99736.06
2022-12-14T20:58:55.483Z,99744.53
2022-12-14T21:01:22.432Z,99752.19
2022-12-14T21:03:50.474Z,99752.03
2022-12-14T21:06:21.918Z,99759.63
2022-12-14T21:09:07.899Z,99755.19
2022-12-14T21:11:55.985Z,99764.69
2022-12-14T21:14:24.296Z,99766.41
2022-12-14T21:16:51.049Z,99768.06
2022-12-14T21:19:17.918Z,99773.16
2022-12-14T21:21:49.682Z,99773.97
2022-12-14T21:24:37.348Z,99773.16
2022-12-14T21:27:08.883Z,99769.66
2022-12-14T21:29:35.559Z,99779.97
2022-12-14T21:32:03.991Z,99780.81
2022-12-14T21:34:31.944Z,99778.16
2022-12-14T21:36:59.433Z,99776.47
2022-12-14T21:39:26.322Z,99787.66
2022-12-14T21:42:13.184Z,99793.69
2022-12-14T21:44:45.181Z,99797.97
2022-12-14T21:47:15.712Z,99809.09
2022-12-14T21:49:43.835Z,99814.22
2022-12-14T21:52:14.231Z,99814.22
2022-12-14T21:54:41.307Z,99808.22
2022-12-14T21:57:26.534Z,99808.25
2022-12-14T21:59:53.223Z,99812.53
2022-12-14T22:02:25.336Z,99801.41
2022-12-14T22:04:57.137Z,99809.16
2022-12-14T22:07:29.480Z,99813.44
2022-12-14T22:09:56.094Z,99802.31
2022-12-14T22:12:22.788Z,99805.06
2022-12-14T22:14:50.264Z,99800.84
2022-12-14T22:17:17.160Z,99808.66
2022-12-14T22:19:43.808Z,99801.81
2022-12-14T22:22:15.521Z,99812.22
2022-12-14T22:24:42.730Z,99806.34
2022-12-14T22:27:11.761Z,99809.03
2022-12-14T22:29:38.400Z,99805.53
2022-12-14T22:32:05.658Z,99816.59
2022-12-14T22:34:32.307Z,99819.09
2022-12-14T22:36:58.915Z,99813.00
2022-12-14T22:39:25.549Z,99811.25
2022-12-14T22:41:52.133Z,99813.00
2022-12-14T22:44:18.711Z,99801.72
2022-12-14T22:46:45.347Z,99806.00
2022-12-14T22:49:16.795Z,99812.81
2022-12-14T22:51:43.448Z,99814.47
2022-12-14T22:54:16.065Z,99821.31
2022-12-14T22:56:48.729Z,99825.59
2022-12-14T22:59:15.266Z,99823.84
2022-12-14T23:01:42.898Z,99823.75
2022-12-14T23:04:13.030Z,99825.41
2022-12-14T23:06:40.831Z,99827.13
2022-12-14T23:09:26.047Z,99834.78
2022-12-14T23:12:11.702Z,99834.00
2022-12-14T23:14:57.961Z,99840.06
2022-12-14T23:17:43.874Z,99844.44
2022-12-14T23:20:29.159Z,99845.38
2022-12-14T23:23:14.501Z,99856.63
2022-12-14T23:25:59.700Z,99854.03
2022-12-14T23:28:49.759Z,99847.16
2022-12-14T23:31:35.488Z,99845.34
2022-12-14T23:34:20.734Z,99854.69
2022-12-14T23:37:05.976Z,99857.97
2022-12-14T23:39:51.446Z,99860.31
2022-12-14T23:42:36.431Z,99872.97
2022-12-14T23:45:21.562Z,99871.88
2022-12-14T23:48:06.553Z,99870.00
2022-12-14T23:50:51.824Z,99876.84
2022-12-14T23:53:37.185Z,99877.72
2022-12-14T23:56:23.078Z,99876.88
2022-12-14T23:59:13.687Z,99880.22
